Detall de PIREP

Printer-friendly versionPDF version

[2016/10/15 15:29:00]
Flight IATA:CT1055
Pilot Number:012
Company ICAO:CAT
Aircraft Type:F50/A
PAX:50
Aircraft Registration:PAOB
Departing Airport: LIEA
Destination Airport: LEIB
Alternate Airport:LEVC
Online: VATSIM
Route:SUPUX UZ924 RIPAL UM603 MORSS
Flight Level:F230
No Slew and time accel
No pause
Crash detect
Detect pilot in Cockpit between each 30 and 45 minutes
15:29 Zero fuel Weight: 37356 Lbs, Fuel Weight: 6444 Lbs
15:29 VATSIM:LIEA 151520Z 29005KT 240V330 9999 FEW025 22/14 Q1017
15:29 VATSIM:LEIB 151500Z 21004KT 160V250 9999 FEW020 23/15 Q1016 NOSIG
15:29 MEDITERRANEAN ODYSSEY
15:29 Parking Brakes off
15:33 Take-off
15:33 Take off Weight: 43724 Lbs
15:33 Wind: 282º @ 005 Knots Heading: 204º
15:33 POS N40º 37´ 53´´ E008º 17´ 25´´
15:33 Flaps:3 at 117 Knots
15:33 Gear Up: 121 Knots
15:34 Flaps:2 at 140 Knots
15:35 Flaps:0 at 152 Knots
15:48 Wind:294º@015 Knots Heading: 262º Ground Speed: 188 Knots Altitude 18270 ft
15:55 TOC
15:55 Fuel Weight: 5655 Lb
16:03 Wind:282º@018 Knots Heading: 261º Ground Speed: 239 Knots Altitude 23005 ft
16:03 TOD
16:03 Fuel Weight: 5461 Lb
16:03 TOC
16:03 Fuel Weight: 5448 Lb
16:18 Wind:268º@020 Knots Heading: 259º Ground Speed: 233 Knots Altitude 23103 ft
16:33 Wind:268º@020 Knots Heading: 249º Ground Speed: 234 Knots Altitude 23110 ft
16:48 Wind:249º@024 Knots Heading: 248º Ground Speed: 229 Knots Altitude 23087 ft
16:51 TOD
16:51 Fuel Weight: 4311 Lb
17:03 Wind:203º@003 Knots Heading: 197º Ground Speed: 215 Knots Altitude 3110 ft
17:04 Flaps:1 at 161 Knots
17:04 Flaps:2 at 149 Knots
17:05 Gear Down: 140 Knots
17:05 Flaps:3 at 140 Knots
17:05 Flaps:4 at 125 Knots
17:05 Flaps:5 at 120 Knots
17:06 Flaps:6 at 123 Knots
17:09 TouchDown:Rate -315 ft/min Speed: 109 Knots
17:09 VATSIM:LEIB 151700Z 23003KT 9999 FEW020 22/16 Q1016 NOSIG
17:09 Land
17:09 Wind:239º@003 Knots
17:09 Heading: 240º
17:09 Flight Duration: 01:36
17:09 Landing Weight: 41395 Lbs
17:09 POS N38º 52´ 27´´ E001º 22´ 34´´
17:11 Parking brakes on
17:11 Block to Block Duration: 01:42
17:11 Final Fuel: 4016 Lbls
17:11 Spent Fuel: 2427 Lbls
17:11 Flight Length: 344 NM
17:11 TOD Land Length: 62 NM

Exportar CSV

Powered by Drupal - Modified by Danger4k